createdAt,value
2023-05-12T00:01:03.530Z,100242.69
2023-05-12T00:03:30.003Z,100242.66
2023-05-12T00:05:56.511Z,100242.66
2023-05-12T00:08:22.823Z,100240.00
2023-05-12T00:10:49.168Z,100240.00
2023-05-12T00:13:15.581Z,100238.25
2023-05-12T00:15:42.019Z,100239.13
2023-05-12T00:18:08.380Z,100236.50
2023-05-12T00:20:34.729Z,100236.50
2023-05-12T00:23:01.125Z,100239.22
2023-05-12T00:25:27.453Z,100236.56
2023-05-12T00:27:53.814Z,100228.53
2023-05-12T00:30:21.244Z,100234.72
2023-05-12T00:32:47.852Z,100239.16
2023-05-12T00:35:14.157Z,100239.22
2023-05-12T00:37:40.477Z,100237.38
2023-05-12T00:40:07.572Z,100228.53
2023-05-12T00:42:35.348Z,100232.06
2023-05-12T00:45:02.252Z,100219.69
2023-05-12T00:47:28.820Z,100223.22
2023-05-12T00:49:55.463Z,100217.94
2023-05-12T00:52:21.954Z,100217.91
2023-05-12T00:54:48.693Z,100225.88
2023-05-12T00:57:15.259Z,100217.03
2023-05-12T00:59:41.544Z,100218.00
2023-05-12T01:02:08.654Z,100217.09
2023-05-12T01:04:36.009Z,100224.13
2023-05-12T01:07:25.124Z,100225.97
2023-05-12T01:09:58.131Z,100224.19
2023-05-12T01:12:25.558Z,100221.53
2023-05-12T01:14:53.857Z,100219.75
2023-05-12T01:17:29.385Z,100225.06
2023-05-12T01:20:01.632Z,100216.22
2023-05-12T01:22:33.518Z,100220.63
2023-05-12T01:25:03.625Z,100216.16
2023-05-12T01:27:30.967Z,100225.88
2023-05-12T01:30:02.816Z,100212.59
2023-05-12T01:32:30.399Z,100214.38
2023-05-12T01:34:56.788Z,100215.25
2023-05-12T01:37:26.518Z,100221.44
2023-05-12T01:39:53.961Z,100220.53
2023-05-12T01:42:20.628Z,100216.13
2023-05-12T01:44:46.975Z,100226.75
2023-05-12T01:47:15.573Z,100223.19
2023-05-12T01:49:41.890Z,100212.56
2023-05-12T01:52:08.377Z,100223.16
2023-05-12T01:54:34.739Z,100216.13
2023-05-12T01:57:01.046Z,100231.16
2023-05-12T01:59:27.435Z,100229.34
2023-05-12T02:01:53.873Z,100221.38
2023-05-12T02:04:20.180Z,100224.00
2023-05-12T02:06:46.508Z,100225.81
2023-05-12T02:09:13.177Z,100237.28
2023-05-12T02:11:39.656Z,100233.72
2023-05-12T02:14:06.679Z,100232.81
2023-05-12T02:16:33.080Z,100229.28
2023-05-12T02:18:59.494Z,100230.16
2023-05-12T02:21:26.234Z,100235.44
2023-05-12T02:23:52.583Z,100232.78
2023-05-12T02:26:19.421Z,100238.09
2023-05-12T02:28:45.890Z,100236.34
2023-05-12T02:31:12.208Z,100231.91
2023-05-12T02:33:38.642Z,100241.63
2023-05-12T02:36:05.420Z,100235.44
2023-05-12T02:38:31.686Z,100234.56
2023-05-12T02:40:58.295Z,100232.81
2023-05-12T02:43:24.608Z,100237.22
2023-05-12T02:45:51.774Z,100225.75
2023-05-12T02:48:18.131Z,100233.75
2023-05-12T02:50:44.426Z,100239.09
2023-05-12T02:53:10.740Z,100238.22
2023-05-12T02:55:37.150Z,100234.72
2023-05-12T02:58:03.551Z,100238.41
2023-05-12T03:00:29.848Z,100244.59
2023-05-12T03:02:56.242Z,100240.22
2023-05-12T03:05:22.851Z,100242.81
2023-05-12T03:07:52.021Z,100249.00
2023-05-12T03:10:19.192Z,100243.69
2023-05-12T03:12:45.811Z,100249.88
2023-05-12T03:15:12.233Z,100243.69
2023-05-12T03:17:38.738Z,100246.34
2023-05-12T03:20:05.917Z,100253.50
2023-05-12T03:22:32.495Z,100257.03
2023-05-12T03:24:58.921Z,100254.38
2023-05-12T03:27:25.348Z,100243.78
2023-05-12T03:29:51.922Z,100249.03
2023-05-12T03:32:18.357Z,100247.25
2023-05-12T03:34:44.778Z,100248.13
2023-05-12T03:37:11.070Z,100251.66
2023-05-12T03:39:37.403Z,100253.50
2023-05-12T03:42:03.929Z,100253.50
2023-05-12T03:44:30.294Z,100253.50
2023-05-12T03:46:56.737Z,100256.13
2023-05-12T03:49:23.151Z,100253.53
2023-05-12T03:51:49.454Z,100251.72
2023-05-12T03:54:15.796Z,100257.94
2023-05-12T03:56:42.200Z,100251.75
2023-05-12T03:59:08.552Z,100260.59
2023-05-12T04:01:35.607Z,100253.53
2023-05-12T04:04:02.013Z,100250.88
2023-05-12T04:06:28.361Z,100262.34
2023-05-12T04:08:54.763Z,100252.63
2023-05-12T04:11:21.170Z,100258.81
2023-05-12T04:13:47.578Z,100260.63
2023-05-12T04:16:14.116Z,100255.31
2023-05-12T04:18:40.580Z,100267.72
2023-05-12T04:21:06.975Z,100262.41
2023-05-12T04:23:33.465Z,100267.72
2023-05-12T04:25:59.772Z,100263.38
2023-05-12T04:28:26.206Z,100268.63
2023-05-12T04:30:52.489Z,100274.75
2023-05-12T04:33:19.045Z,100272.09
2023-05-12T04:35:45.570Z,100274.66
2023-05-12T04:38:12.072Z,100272.84
2023-05-12T04:40:38.401Z,100281.69
2023-05-12T04:43:04.820Z,100281.69
2023-05-12T04:45:31.250Z,100288.72
2023-05-12T04:47:57.666Z,100284.31
2023-05-12T04:50:23.982Z,100280.81
2023-05-12T04:52:50.433Z,100291.44
2023-05-12T04:55:16.963Z,100295.00
2023-05-12T04:57:43.284Z,100298.63
2023-05-12T05:00:10.235Z,100297.75
2023-05-12T05:02:36.740Z,100295.13
2023-05-12T05:05:03.273Z,100300.47
2023-05-12T05:07:29.757Z,100295.16
2023-05-12T05:09:56.222Z,100310.25
2023-05-12T05:12:22.672Z,100296.09
2023-05-12T05:14:49.153Z,100304.97
2023-05-12T05:17:15.639Z,100309.41
2023-05-12T05:19:55.196Z,100313.88
2023-05-12T05:22:25.330Z,100307.69
2023-05-12T05:24:51.782Z,100316.59
2023-05-12T05:27:18.259Z,100313.97
2023-05-12T05:29:44.581Z,100317.63
2023-05-12T05:32:10.921Z,100312.41
2023-05-12T05:34:37.612Z,100315.09
2023-05-12T05:37:04.070Z,100316.88
2023-05-12T05:39:30.835Z,100320.50
2023-05-12T05:41:57.944Z,100323.16
2023-05-12T05:44:25.009Z,100324.06
2023-05-12T05:46:51.461Z,100325.84
2023-05-12T05:49:17.850Z,100329.38
2023-05-12T05:51:44.138Z,100332.91
2023-05-12T05:54:10.577Z,100334.69
2023-05-12T05:56:37.059Z,100340.00
2023-05-12T05:59:04.588Z,100341.81
2023-05-12T06:01:31.529Z,100345.34
2023-05-12T06:03:57.968Z,100343.56
2023-05-12T06:06:24.388Z,100350.66
2023-05-12T06:08:50.804Z,100360.41
2023-05-12T06:11:17.937Z,100355.09
2023-05-12T06:13:44.450Z,100356.84
2023-05-12T06:16:10.862Z,100364.84
2023-05-12T06:18:38.179Z,100364.84
2023-05-12T06:21:06.148Z,100363.97
2023-05-12T06:23:32.569Z,100363.06
2023-05-12T06:25:59.046Z,100375.50
2023-05-12T06:28:25.368Z,100377.25
2023-05-12T06:30:51.699Z,100375.50
2023-05-12T06:33:18.170Z,100379.06
2023-05-12T06:35:44.530Z,100368.44
2023-05-12T06:38:11.711Z,100382.63
2023-05-12T06:40:38.259Z,100377.25
2023-05-12T06:43:04.659Z,100378.19
2023-05-12T06:45:31.085Z,100388.84
2023-05-12T06:47:57.705Z,100387.91
2023-05-12T06:50:24.095Z,100385.25
2023-05-12T06:52:51.018Z,100387.06
2023-05-12T06:55:19.852Z,100388.78
2023-05-12T06:57:46.588Z,100391.47
2023-05-12T07:00:13.858Z,100393.22
2023-05-12T07:02:40.319Z,100403.03
2023-05-12T07:05:07.019Z,100403.03
2023-05-12T07:07:33.381Z,100398.59
2023-05-12T07:10:02.125Z,100403.91
2023-05-12T07:12:28.414Z,100396.81
2023-05-12T07:14:54.706Z,100408.38
2023-05-12T07:17:23.562Z,100395.94
2023-05-12T07:19:49.958Z,100401.19
2023-05-12T07:22:16.336Z,100395.88
2023-05-12T07:24:43.214Z,100403.78
2023-05-12T07:27:09.547Z,100399.19
2023-05-12T07:29:35.878Z,100401.56
2023-05-12T07:32:02.332Z,100406.78
2023-05-12T07:34:28.790Z,100398.63
2023-05-12T07:36:55.473Z,100401.97
2023-05-12T07:39:23.651Z,100404.66
2023-05-12T07:41:50.939Z,100404.56
2023-05-12T07:44:17.334Z,100408.06
2023-05-12T07:46:43.894Z,100398.16
2023-05-12T07:49:10.301Z,100389.25
2023-05-12T07:51:36.875Z,100398.41
2023-05-12T07:54:03.313Z,100394.19
2023-05-12T07:56:29.679Z,100404.00
2023-05-12T07:58:56.160Z,100404.97
2023-05-12T08:01:22.669Z,100402.31
2023-05-12T08:03:51.162Z,100409.59
2023-05-12T08:06:18.464Z,100417.66
2023-05-12T08:08:45.033Z,100413.25
2023-05-12T08:11:12.521Z,100410.59
2023-05-12T08:13:38.908Z,100410.63
2023-05-12T08:16:05.478Z,100415.94
2023-05-12T08:18:31.883Z,100423.06
2023-05-12T08:20:58.229Z,100421.28
2023-05-12T08:23:24.578Z,100425.72
2023-05-12T08:25:50.884Z,100424.81
2023-05-12T08:28:17.216Z,100422.09
2023-05-12T08:30:45.032Z,100421.19
2023-05-12T08:33:12.251Z,100423.88
2023-05-12T08:35:38.634Z,100422.16
2023-05-12T08:38:05.780Z,100425.72
2023-05-12T08:40:41.702Z,100424.91
2023-05-12T08:43:37.884Z,100431.09
2023-05-12T08:46:05.256Z,100422.19
2023-05-12T08:48:34.393Z,100430.22
2023-05-12T08:51:02.753Z,100432.84
2023-05-12T08:53:29.473Z,100436.22
2023-05-12T08:57:09.596Z,100422.69
2023-05-12T08:58:45.444Z,100431.25
2023-05-12T09:01:12.492Z,100424.50
2023-05-12T09:03:39.322Z,100425.59
2023-05-12T09:06:06.694Z,100418.28
2023-05-12T09:08:34.618Z,100420.63
2023-05-12T09:11:01.762Z,100409.66
2023-05-12T09:13:48.125Z,100415.78
2023-05-12T09:16:18.237Z,100418.88
2023-05-12T09:18:50.758Z,100414.13
2023-05-12T09:21:17.298Z,100414.63
2023-05-12T09:24:06.302Z,100415.34
2023-05-12T09:26:50.302Z,100409.91
2023-05-12T09:29:27.689Z,100416.19
2023-05-12T09:31:58.574Z,100408.19
2023-05-12T09:34:30.303Z,100406.63
2023-05-12T09:37:01.474Z,100409.66
2023-05-12T09:39:28.823Z,100409.28
2023-05-12T09:41:55.830Z,100416.06
2023-05-12T09:44:23.939Z,100403.34
2023-05-12T09:46:51.224Z,100405.34
2023-05-12T09:49:28.725Z,100417.03
2023-05-12T09:51:58.952Z,100416.09
2023-05-12T09:54:29.359Z,100409.97
2023-05-12T09:57:04.765Z,100414.16
2023-05-12T09:59:33.558Z,100412.78
2023-05-12T10:02:03.831Z,100417.78
2023-05-12T10:04:39.135Z,100407.75
2023-05-12T10:07:09.687Z,100414.28
2023-05-12T10:09:39.290Z,100410.25
2023-05-12T10:12:06.333Z,100411.81
2023-05-12T10:14:33.718Z,100411.81
2023-05-12T10:17:00.922Z,100411.06
2023-05-12T10:19:29.996Z,100409.06
2023-05-12T10:22:00.482Z,100405.25
2023-05-12T10:24:27.496Z,100410.66
2023-05-12T10:26:57.471Z,100409.16
2023-05-12T10:29:30.096Z,100411.00
2023-05-12T10:31:57.644Z,100412.06
2023-05-12T10:34:30.121Z,100408.78
2023-05-12T10:36:58.423Z,100400.81
2023-05-12T10:39:29.616Z,100400.78
2023-05-12T10:42:06.081Z,100403.47
2023-05-12T10:44:32.538Z,100395.75
2023-05-12T10:47:02.079Z,100401.13
2023-05-12T10:49:39.296Z,100407.34
2023-05-12T10:52:05.988Z,100411.19
2023-05-12T10:54:40.947Z,100410.47
2023-05-12T10:57:16.046Z,100408.00
2023-05-12T10:59:52.874Z,100412.59
2023-05-12T11:02:26.239Z,100402.97
2023-05-12T11:05:01.677Z,100415.56
2023-05-12T11:07:30.973Z,100410.28
2023-05-12T11:10:02.011Z,100419.28
2023-05-12T11:12:35.263Z,100422.91
2023-05-12T11:15:03.532Z,100418.44
2023-05-12T11:17:30.050Z,100413.88
2023-05-12T11:19:56.739Z,100417.13
2023-05-12T11:22:23.903Z,100421.00
2023-05-12T11:24:52.383Z,100421.84
2023-05-12T11:27:21.173Z,100420.13
2023-05-12T11:29:58.777Z,100414.16
2023-05-12T11:32:25.178Z,100413.00
2023-05-12T11:34:51.526Z,100403.22
2023-05-12T11:37:20.824Z,100418.56
2023-05-12T11:39:47.255Z,100420.06
2023-05-12T11:42:14.710Z,100419.06
2023-05-12T11:44:49.516Z,100430.28
2023-05-12T11:47:17.276Z,100436.06
2023-05-12T11:49:49.147Z,100438.19
2023-05-12T11:52:16.251Z,100435.84
2023-05-12T11:54:52.424Z,100443.56
2023-05-12T11:57:30.202Z,100442.00
2023-05-12T12:00:04.691Z,100443.84
2023-05-12T12:02:31.479Z,100441.19
2023-05-12T12:04:58.089Z,100460.69
2023-05-12T12:07:32.154Z,100451.81
2023-05-12T12:09:59.170Z,100448.28
2023-05-12T12:12:25.625Z,100455.38
2023-05-12T12:14:51.975Z,100454.47
2023-05-12T12:17:18.345Z,100459.63
2023-05-12T12:19:44.645Z,100455.94
2023-05-12T12:22:11.596Z,100451.09
2023-05-12T12:24:37.980Z,100458.88
2023-05-12T12:27:05.384Z,100453.38
2023-05-12T12:29:31.699Z,100460.50
2023-05-12T12:31:58.133Z,100457.03
2023-05-12T12:34:24.434Z,100459.94
2023-05-12T12:36:51.619Z,100456.25
2023-05-12T12:39:19.824Z,100465.03
2023-05-12T12:41:48.055Z,100455.06
2023-05-12T12:44:14.637Z,100455.06
2023-05-12T12:46:41.099Z,100453.28
2023-05-12T12:49:07.505Z,100466.72
2023-05-12T12:51:45.067Z,100461.31
2023-05-12T12:54:13.094Z,100464.31
2023-05-12T12:56:39.439Z,100459.09
2023-05-12T12:59:06.222Z,100467.13
2023-05-12T13:01:33.779Z,100455.38
2023-05-12T13:04:00.305Z,100455.13
2023-05-12T13:06:27.491Z,100462.97
2023-05-12T13:08:53.794Z,100461.69
2023-05-12T13:11:20.100Z,100451.13
2023-05-12T13:13:46.513Z,100464.66
2023-05-12T13:16:12.981Z,100463.09
2023-05-12T13:18:39.497Z,100464.16
2023-05-12T13:21:06.062Z,100480.47
2023-05-12T13:23:32.451Z,100470.84
2023-05-12T13:25:58.945Z,100470.13
2023-05-12T13:28:25.364Z,100473.69
2023-05-12T13:30:52.553Z,100472.81
2023-05-12T13:33:19.005Z,100465.66
2023-05-12T13:35:45.412Z,100466.47
2023-05-12T13:38:11.847Z,100469.97
2023-05-12T13:40:38.330Z,100473.41
2023-05-12T13:43:05.214Z,100460.66
2023-05-12T13:45:31.569Z,100462.16
2023-05-12T13:47:58.008Z,100460.09
2023-05-12T13:50:24.433Z,100436.69
2023-05-12T13:52:50.772Z,100460.53
2023-05-12T13:55:21.359Z,100461.38
2023-05-12T13:57:48.200Z,100453.38
2023-05-12T14:00:16.991Z,100464.91
2023-05-12T14:02:43.636Z,100467.75
2023-05-12T14:05:10.138Z,100463.34
2023-05-12T14:07:36.491Z,100458.88
2023-05-12T14:10:03.091Z,100465.81
2023-05-12T14:12:29.462Z,100473.69
2023-05-12T14:15:04.485Z,100459.25
2023-05-12T14:17:38.488Z,100471.75
2023-05-12T14:20:06.390Z,100467.41
2023-05-12T14:22:33.460Z,100471.88
2023-05-12T14:25:00.380Z,100471.88
2023-05-12T14:27:26.736Z,100474.88
2023-05-12T14:29:53.070Z,100477.44
2023-05-12T14:32:19.485Z,100479.34
2023-05-12T14:34:46.007Z,100487.31
2023-05-12T14:37:12.455Z,100491.59
2023-05-12T14:39:38.841Z,100490.44
2023-05-12T14:42:05.422Z,100488.41
2023-05-12T14:44:32.192Z,100492.50
2023-05-12T14:46:58.509Z,100487.53
2023-05-12T14:49:24.865Z,100489.59
2023-05-12T14:51:51.170Z,100486.41
2023-05-12T14:54:25.311Z,100489.66
2023-05-12T14:56:52.498Z,100491.34
2023-05-12T14:59:18.906Z,100483.84
2023-05-12T15:01:45.310Z,100480.72
2023-05-12T15:04:11.908Z,100480.88
2023-05-12T15:06:38.206Z,100476.41
2023-05-12T15:09:04.766Z,100487.56
2023-05-12T15:11:31.139Z,100472.47
2023-05-12T15:13:57.492Z,100472.25
2023-05-12T15:16:26.054Z,100466.84
2023-05-12T15:18:52.455Z,100478.81
2023-05-12T15:21:18.808Z,100474.16
2023-05-12T15:23:45.177Z,100472.56
2023-05-12T15:28:40.824Z,100470.59
2023-05-12T15:31:07.304Z,100470.75
2023-05-12T15:33:33.882Z,100473.34
2023-05-12T15:36:00.702Z,100471.66
2023-05-12T15:38:27.181Z,100479.25
2023-05-12T15:40:53.530Z,100469.66
2023-05-12T15:43:19.966Z,100479.53
2023-05-12T15:45:46.537Z,100478.91
2023-05-12T15:48:12.874Z,100481.91
2023-05-12T15:50:39.204Z,100473.63
2023-05-12T15:53:06.795Z,100484.81
2023-05-12T15:55:33.354Z,100484.72
2023-05-12T15:57:59.907Z,100480.28
2023-05-12T16:00:26.422Z,100479.81
2023-05-12T16:02:53.395Z,100482.00
2023-05-12T16:05:20.175Z,100472.31
2023-05-12T16:07:47.853Z,100480.44
2023-05-12T16:10:14.154Z,100480.16
2023-05-12T16:12:40.541Z,100476.47
2023-05-12T16:15:07.637Z,100481.56
2023-05-12T16:17:33.977Z,100487.59
2023-05-12T16:20:02.008Z,100478.59
2023-05-12T16:22:28.429Z,100486.69
2023-05-12T16:24:56.385Z,100484.59
2023-05-12T16:27:22.844Z,100481.03
2023-05-12T16:29:50.399Z,100483.78
2023-05-12T16:32:17.294Z,100484.69
2023-05-12T16:34:43.865Z,100489.63
2023-05-12T16:37:10.180Z,100495.34
2023-05-12T16:39:36.711Z,100492.72
2023-05-12T16:42:03.405Z,100494.72
2023-05-12T16:44:29.809Z,100486.97
2023-05-12T16:46:56.104Z,100489.97
2023-05-12T16:49:22.952Z,100490.44
2023-05-12T16:51:50.073Z,100496.94
2023-05-12T16:54:17.938Z,100483.63
2023-05-12T16:56:44.298Z,100493.69
2023-05-12T16:59:10.940Z,100496.47
2023-05-12T17:01:39.308Z,100502.94
2023-05-12T17:04:06.817Z,100497.69
2023-05-12T17:06:33.164Z,100503.97
2023-05-12T17:08:59.513Z,100505.81
2023-05-12T17:11:25.877Z,100515.63
2023-05-12T17:13:53.690Z,100513.09
2023-05-12T17:16:20.152Z,100517.66
2023-05-12T17:21:15.809Z,100517.88
2023-05-12T17:23:42.153Z,100527.75
2023-05-12T17:26:08.516Z,100526.09
2023-05-12T17:28:34.896Z,100524.38
2023-05-12T17:31:01.379Z,100524.44
2023-05-12T17:33:27.801Z,100533.56
2023-05-12T17:38:26.098Z,100527.38
2023-05-12T17:40:52.483Z,100538.09
2023-05-12T17:43:18.900Z,100533.72
2023-05-12T17:45:45.215Z,100532.06
2023-05-12T17:48:11.618Z,100531.19
2023-05-12T17:50:39.231Z,100536.72
2023-05-12T17:53:06.599Z,100537.69
2023-05-12T17:55:33.246Z,100540.47
2023-05-12T17:57:59.591Z,100533.31
2023-05-12T18:00:25.891Z,100538.81
2023-05-12T18:02:52.416Z,100535.28
2023-05-12T18:05:19.205Z,100543.34
2023-05-12T18:07:45.828Z,100538.09
2023-05-12T18:10:12.285Z,100547.94
2023-05-12T18:12:38.782Z,100552.44
2023-05-12T18:15:06.280Z,100556.06
2023-05-12T18:17:32.863Z,100548.97
2023-05-12T18:19:59.369Z,100542.78
2023-05-12T18:22:26.459Z,100549.97
2023-05-12T18:24:52.815Z,100553.59
2023-05-12T18:27:19.117Z,100555.38
2023-05-12T18:29:45.486Z,100565.19
2023-05-12T18:32:11.833Z,100553.66
2023-05-12T18:34:38.212Z,100559.88
2023-05-12T18:37:04.808Z,100571.44
2023-05-12T18:39:31.369Z,100567.91
2023-05-12T18:41:57.731Z,100575.03
2023-05-12T18:44:24.303Z,100575.06
2023-05-12T18:46:50.708Z,100572.47
2023-05-12T18:49:17.169Z,100577.81
2023-05-12T18:51:43.529Z,100576.03
2023-05-12T18:54:09.961Z,100582.28
2023-05-12T18:56:36.873Z,100582.28
2023-05-12T18:59:03.251Z,100585.00
2023-05-12T19:01:29.875Z,100581.47
2023-05-12T19:03:56.246Z,100594.84
2023-05-12T19:06:22.668Z,100600.16
2023-05-12T19:08:49.052Z,100601.03
2023-05-12T19:11:15.370Z,100603.72
2023-05-12T19:13:45.036Z,100608.19
2023-05-12T19:16:11.733Z,100607.31
2023-05-12T19:18:38.064Z,100624.19
2023-05-12T19:21:04.473Z,100624.22
2023-05-12T19:23:31.080Z,100625.97
2023-05-12T19:25:57.447Z,100618.88
2023-05-12T19:28:24.054Z,100630.41
2023-05-12T19:30:50.747Z,100627.75
2023-05-12T19:33:17.450Z,100634.84
2023-05-12T19:35:43.847Z,100638.41
2023-05-12T19:38:10.148Z,100634.84
2023-05-12T19:40:36.520Z,100629.50
2023-05-12T19:43:04.978Z,100638.31
2023-05-12T19:45:31.307Z,100630.34
2023-05-12T19:47:57.806Z,100633.00
2023-05-12T19:50:24.230Z,100635.72
2023-05-12T19:52:50.566Z,100640.09
2023-05-12T19:55:17.010Z,100639.22
2023-05-12T19:57:43.854Z,100649.84
2023-05-12T20:00:10.875Z,100645.41
2023-05-12T20:02:37.426Z,100640.94
2023-05-12T20:05:04.052Z,100653.34
2023-05-12T20:07:30.539Z,100645.31
2023-05-12T20:09:57.059Z,100640.94
2023-05-12T20:12:23.422Z,100640.94
2023-05-12T20:14:49.924Z,100648.94
2023-05-12T20:17:16.403Z,100648.84
2023-05-12T20:19:42.795Z,100643.47
2023-05-12T20:22:09.126Z,100647.88
2023-05-12T20:24:35.523Z,100653.22
2023-05-12T20:27:02.081Z,100655.84
2023-05-12T20:29:30.151Z,100654.09
2023-05-12T20:31:56.538Z,100647.78
2023-05-12T20:34:22.858Z,100648.59
2023-05-12T20:36:49.340Z,100656.47
2023-05-12T20:39:15.807Z,100654.53
2023-05-12T20:41:43.357Z,100652.66
2023-05-12T20:44:09.735Z,100656.91
2023-05-12T20:46:38.260Z,100644.38
2023-05-12T20:49:05.002Z,100650.53
2023-05-12T20:51:32.327Z,100652.16
2023-05-12T20:53:58.705Z,100647.56
2023-05-12T20:56:26.386Z,100647.38
2023-05-12T20:58:52.889Z,100643.66
2023-05-12T21:01:19.275Z,100655.94
2023-05-12T21:03:46.008Z,100654.00
2023-05-12T21:06:12.446Z,100663.63
2023-05-12T21:08:38.759Z,100659.13
2023-05-12T21:11:13.630Z,100660.88
2023-05-12T21:13:40.020Z,100667.19
2023-05-12T21:16:06.349Z,100653.75
2023-05-12T21:18:33.191Z,100654.72
2023-05-12T21:20:59.666Z,100672.16
2023-05-12T21:23:28.186Z,100676.41
2023-05-12T21:25:54.827Z,100668.16
2023-05-12T21:28:21.313Z,100673.25
2023-05-12T21:30:47.971Z,100674.88
2023-05-12T21:33:14.420Z,100672.00
2023-05-12T21:35:41.140Z,100678.03
2023-05-12T21:38:08.418Z,100670.06
2023-05-12T21:40:34.743Z,100682.31
2023-05-12T21:43:01.072Z,100668.09
2023-05-12T21:45:27.515Z,100679.59
2023-05-12T21:47:53.987Z,100675.03
2023-05-12T21:50:23.381Z,100675.94
2023-05-12T21:52:50.205Z,100681.31
2023-05-12T21:55:17.272Z,100673.34
2023-05-12T21:57:43.581Z,100667.22
2023-05-12T22:00:11.936Z,100675.25
2023-05-12T22:02:38.311Z,100682.38
2023-05-12T22:05:05.496Z,100685.66
2023-05-12T22:07:31.824Z,100681.44
2023-05-12T22:09:58.112Z,100683.28
2023-05-12T22:12:24.512Z,100681.53
2023-05-12T22:14:50.880Z,100679.66
2023-05-12T22:17:17.158Z,100678.34
2023-05-12T22:19:43.533Z,100686.19
2023-05-12T22:22:10.039Z,100674.09
2023-05-12T22:24:36.408Z,100682.59
2023-05-12T22:27:02.727Z,100663.53
2023-05-12T22:29:29.061Z,100688.47
2023-05-12T22:31:55.438Z,100686.69
2023-05-12T22:34:21.750Z,100683.97
2023-05-12T22:36:48.123Z,100683.75
2023-05-12T22:39:14.646Z,100692.69
2023-05-12T22:41:45.277Z,100692.56
2023-05-12T22:44:11.642Z,100682.72
2023-05-12T22:46:38.000Z,100688.97
2023-05-12T22:49:04.354Z,100688.84
2023-05-12T22:51:31.615Z,100694.06
2023-05-12T22:53:57.908Z,100692.94
2023-05-12T22:56:24.205Z,100696.97
2023-05-12T22:58:50.620Z,100699.25
2023-05-12T23:01:18.300Z,100686.63
2023-05-12T23:03:44.726Z,100698.75
2023-05-12T23:06:13.463Z,100695.13
2023-05-12T23:08:39.823Z,100702.91
2023-05-12T23:11:06.128Z,100693.34
2023-05-12T23:13:32.477Z,100708.09
2023-05-12T23:15:58.803Z,100700.81
2023-05-12T23:18:25.160Z,100710.59
2023-05-12T23:20:51.671Z,100704.22
2023-05-12T23:23:17.960Z,100707.84
2023-05-12T23:25:44.306Z,100705.78
2023-05-12T23:28:10.607Z,100707.50
2023-05-12T23:30:36.909Z,100708.72
2023-05-12T23:33:03.327Z,100716.94
2023-05-12T23:35:29.699Z,100710.91
2023-05-12T23:37:55.993Z,100710.13
2023-05-12T23:40:22.667Z,100714.53
2023-05-12T23:42:49.214Z,100714.66
2023-05-12T23:45:15.840Z,100709.47
2023-05-12T23:47:43.107Z,100708.56
2023-05-12T23:50:09.553Z,100704.94
2023-05-12T23:52:35.920Z,100702.25
2023-05-12T23:55:02.210Z,100707.53
2023-05-12T23:57:28.521Z,100712.09
2023-05-12T23:59:54.861Z,100706.97
